Lake Fork, Illinois
Current Conditions -  °F | °C
As of 10:15 AM on Wednesday 22 Oct 2014 (Local Time) from KAAA Reporting Station
Clear Clear  
Wind Chill: 11°   Ceiling: Unl
Heat Index: 11°   Visibility: 10mi
Dew Point:   Wind: 3mph
Humidity: 65%   Direction: 120°ESE
Pressure: 30.35"   Gusts: NA
Location:  39.97°N, 89.35°W
Report Text: KAAA 221515Z AUTO 12003KT 10SM CLR 11/04 A3035 RMK AO2 T01070043
Loading
Personal Weather Stations






























Interactive Weather Map
Tropical Storm Tracking
New forecast layout! Learn more

10-Day Weather Forecast

Advertisements
Track Severe Weather on mobile